sensor_id;sensor_type;location;lat;lon;timestamp;P1;P2;P0
78493;PMS7003;67781;48.920;2.346;2023-02-18T13:32:50;0.75;0.75;0.75
78493;PMS7003;67781;48.920;2.346;2023-02-18T13:40:56;1.00;1.00;0.00
78493;PMS7003;67781;48.920;2.346;2023-02-18T13:48:47;0.00;0.00;0.00
78493;PMS7003;67781;48.920;2.346;2023-02-18T13:51:14;0.00;0.00;0.00
78493;PMS7003;67781;48.920;2.346;2023-02-18T13:54:19;2.00;1.00;0.50
78493;PMS7003;67781;48.920;2.346;2023-02-18T13:56:50;1.75;1.00;0.25
78493;PMS7003;67781;48.920;2.346;2023-02-18T13:59:31;0.25;0.25;0.00
78493;PMS7003;67781;48.920;2.346;2023-02-18T14:04:50;0.00;0.00;0.00
78493;PMS7003;67781;48.920;2.346;2023-02-18T14:09:42;0.00;0.00;0.00
78493;PMS7003;67781;48.920;2.346;2023-02-18T14:12:24;0.00;0.00;0.00
78493;PMS7003;67781;48.920;2.346;2023-02-18T14:42:21;0.00;0.00;0.00
78493;PMS7003;67781;48.920;2.346;2023-02-18T14:45:08;0.00;0.00;0.00
78493;PMS7003;67781;48.920;2.346;2023-02-18T14:50:46;0.00;0.00;0.00
78493;PMS7003;67781;48.920;2.346;2023-02-18T14:53:13;1.00;0.25;0.00
78493;PMS7003;67781;48.920;2.346;2023-02-18T14:55:44;0.00;0.00;0.00
78493;PMS7003;67781;48.920;2.346;2023-02-18T14:58:29;0.00;0.00;0.00
78493;PMS7003;67781;48.920;2.346;2023-02-18T15:01:33;0.00;0.00;0.00
78493;PMS7003;67781;48.920;2.346;2023-02-18T15:03:55;0.00;0.00;0.00
78493;PMS7003;67781;48.920;2.346;2023-02-18T15:06:27;2.00;0.00;0.00
78493;PMS7003;67781;48.920;2.346;2023-02-18T15:08:57;0.00;0.00;0.00
78493;PMS7003;67781;48.920;2.346;2023-02-18T15:11:33;0.00;0.00;0.00
78493;PMS7003;67781;48.920;2.346;2023-02-18T15:14:02;0.75;0.75;0.75
78493;PMS7003;67781;48.920;2.346;2023-02-18T15:16:34;0.00;0.00;0.00
78493;PMS7003;67781;48.920;2.346;2023-02-18T15:19:04;2.00;0.00;0.00
78493;PMS7003;67781;48.920;2.346;2023-02-18T15:21:37;0.25;0.00;0.00
78493;PMS7003;67781;48.920;2.346;2023-02-18T15:24:26;0.00;0.00;0.00
78493;PMS7003;67781;48.920;2.346;2023-02-18T15:27:16;0.00;0.00;0.00
78493;PMS7003;67781;48.920;2.346;2023-02-18T15:29:56;0.00;0.00;0.00
78493;PMS7003;67781;48.920;2.346;2023-02-18T15:32:28;0.75;0.00;0.00
78493;PMS7003;67781;48.920;2.346;2023-02-18T15:34:57;0.00;0.00;0.00
78493;PMS7003;67781;48.920;2.346;2023-02-18T15:37:27;1.25;0.75;0.75
78493;PMS7003;67781;48.920;2.346;2023-02-18T15:39:54;0.75;0.75;0.75
78493;PMS7003;67781;48.920;2.346;2023-02-18T15:42:29;0.50;0.50;0.00
78493;PMS7003;67781;48.920;2.346;2023-02-18T15:47:29;2.00;0.00;0.00
78493;PMS7003;67781;48.920;2.346;2023-02-18T15:49:56;2.50;0.75;0.75
78493;PMS7003;67781;48.920;2.346;2023-02-18T15:52:32;4.00;0.50;0.25
78493;PMS7003;67781;48.920;2.346;2023-02-18T15:55:05;0.50;0.50;0.50
78493;PMS7003;67781;48.920;2.346;2023-02-18T15:57:35;1.75;1.00;1.00
78493;PMS7003;67781;48.920;2.346;2023-02-18T16:00:05;0.00;0.00;0.00
78493;PMS7003;67781;48.920;2.346;2023-02-18T16:02:48;1.75;0.00;0.00
78493;PMS7003;67781;48.920;2.346;2023-02-18T16:05:22;0.00;0.00;0.00
78493;PMS7003;67781;48.920;2.346;2023-02-18T16:07:51;0.25;0.25;0.00
78493;PMS7003;67781;48.920;2.346;2023-02-18T16:10:22;2.50;0.75;0.00
78493;PMS7003;67781;48.920;2.346;2023-02-18T16:12:51;0.75;0.50;0.00
78493;PMS7003;67781;48.920;2.346;2023-02-18T16:15:26;0.75;0.75;0.50
78493;PMS7003;67781;48.920;2.346;2023-02-18T16:17:54;2.25;1.00;0.50
78493;PMS7003;67781;48.920;2.346;2023-02-18T16:20:30;0.75;0.75;0.25
78493;PMS7003;67781;48.920;2.346;2023-02-18T16:23:00;0.75;0.75;0.75
78493;PMS7003;67781;48.920;2.346;2023-02-18T16:25:41;0.00;0.00;0.00
78493;PMS7003;67781;48.920;2.346;2023-02-18T16:30:41;2.00;1.00;0.25
78493;PMS7003;67781;48.920;2.346;2023-02-18T16:33:08;2.00;1.00;0.50
78493;PMS7003;67781;48.920;2.346;2023-02-18T16:35:33;0.75;0.00;0.00
78493;PMS7003;67781;48.920;2.346;2023-02-18T16:37:59;1.00;1.00;1.00
78493;PMS7003;67781;48.920;2.346;2023-02-18T16:40:37;1.00;1.00;1.00
78493;PMS7003;67781;48.920;2.346;2023-02-18T16:43:08;1.00;1.00;0.50
78493;PMS7003;67781;48.920;2.346;2023-02-18T16:45:41;0.25;0.25;0.00
78493;PMS7003;67781;48.920;2.346;2023-02-18T16:50:45;1.00;1.00;1.00
78493;PMS7003;67781;48.920;2.346;2023-02-18T16:53:13;2.50;1.00;1.00
78493;PMS7003;67781;48.920;2.346;2023-02-18T16:55:38;2.00;0.75;0.75
78493;PMS7003;67781;48.920;2.346;2023-02-18T16:58:04;0.75;0.75;0.75
78493;PMS7003;67781;48.920;2.346;2023-02-18T17:00:29;2.50;1.00;1.00
78493;PMS7003;67781;48.920;2.346;2023-02-18T17:02:57;1.00;0.25;0.25
78493;PMS7003;67781;48.920;2.346;2023-02-18T17:05:24;2.00;1.00;1.00
78493;PMS7003;67781;48.920;2.346;2023-02-18T17:07:54;2.00;1.00;1.00
78493;PMS7003;67781;48.920;2.346;2023-02-18T17:10:26;3.50;1.25;0.75
78493;PMS7003;67781;48.920;2.346;2023-02-18T17:12:52;0.00;0.00;0.00
78493;PMS7003;67781;48.920;2.346;2023-02-18T17:17:48;1.00;1.00;1.00
78493;PMS7003;67781;48.920;2.346;2023-02-18T17:20:14;1.00;1.00;1.00
78493;PMS7003;67781;48.920;2.346;2023-02-18T17:22:40;1.75;1.75;1.25
78493;PMS7003;67781;48.920;2.346;2023-02-18T17:25:22;3.00;1.00;1.00
78493;PMS7003;67781;48.920;2.346;2023-02-18T17:27:49;1.00;1.00;1.00
78493;PMS7003;67781;48.920;2.346;2023-02-18T17:30:15;4.00;1.50;1.00
78493;PMS7003;67781;48.920;2.346;2023-02-18T17:32:42;2.00;1.50;1.00
78493;PMS7003;67781;48.920;2.346;2023-02-18T17:35:09;3.25;1.75;1.75
78493;PMS7003;67781;48.920;2.346;2023-02-18T17:37:43;2.25;1.75;1.75
78493;PMS7003;67781;48.920;2.346;2023-02-18T17:40:12;2.25;1.75;1.75
78493;PMS7003;67781;48.920;2.346;2023-02-18T17:42:40;0.50;0.00;0.00
78493;PMS7003;67781;48.920;2.346;2023-02-18T17:47:47;1.25;0.75;0.75
78493;PMS7003;67781;48.920;2.346;2023-02-18T17:50:12;1.75;1.75;1.50
78493;PMS7003;67781;48.920;2.346;2023-02-18T17:52:38;3.75;2.50;1.75
78493;PMS7003;67781;48.920;2.346;2023-02-18T17:55:37;1.00;1.00;1.00
78493;PMS7003;67781;48.920;2.346;2023-02-18T17:57:57;3.00;2.00;2.00
78493;PMS7003;67781;48.920;2.346;2023-02-18T18:00:24;1.00;1.00;1.00
78493;PMS7003;67781;48.920;2.346;2023-02-18T18:02:52;3.25;2.75;2.00
78493;PMS7003;67781;48.920;2.346;2023-02-18T18:07:55;2.00;2.00;2.00
78493;PMS7003;67781;48.920;2.346;2023-02-18T18:10:22;2.75;2.25;2.00
78493;PMS7003;67781;48.920;2.346;2023-02-18T18:12:56;4.50;2.00;1.75
78493;PMS7003;67781;48.920;2.346;2023-02-18T18:15:24;1.75;1.75;1.50
78493;PMS7003;67781;48.920;2.346;2023-02-18T18:17:53;3.25;3.25;2.50
78493;PMS7003;67781;48.920;2.346;2023-02-18T18:20:20;1.75;1.75;1.75
78493;PMS7003;67781;48.920;2.346;2023-02-18T18:22:46;3.00;3.00;2.25
78493;PMS7003;67781;48.920;2.346;2023-02-18T18:27:40;2.50;2.50;1.75
78493;PMS7003;67781;48.920;2.346;2023-02-18T18:30:05;3.25;3.00;2.00
78493;PMS7003;67781;48.920;2.346;2023-02-18T18:32:31;5.00;2.75;1.75
78493;PMS7003;67781;48.920;2.346;2023-02-18T18:34:56;3.00;2.25;2.00
78493;PMS7003;67781;48.920;2.346;2023-02-18T18:37:22;3.50;3.50;2.75
78493;PMS7003;67781;48.920;2.346;2023-02-18T18:39:47;2.00;2.00;2.00
78493;PMS7003;67781;48.920;2.346;2023-02-18T18:42:12;2.25;2.25;2.00
78493;PMS7003;67781;48.920;2.346;2023-02-18T18:44:38;2.25;2.25;2.00
78493;PMS7003;67781;48.920;2.346;2023-02-18T18:47:03;2.50;2.50;2.25
78493;PMS7003;67781;48.920;2.346;2023-02-18T18:49:28;3.50;2.25;1.75
78493;PMS7003;67781;48.920;2.346;2023-02-18T18:51:54;2.25;2.00;1.50
78493;PMS7003;67781;48.920;2.346;2023-02-18T18:54:19;2.75;2.25;2.00
78493;PMS7003;67781;48.920;2.346;2023-02-18T18:56:44;3.50;3.50;2.75
78493;PMS7003;67781;48.920;2.346;2023-02-18T18:59:10;4.50;3.00;2.50
78493;PMS7003;67781;48.920;2.346;2023-02-18T19:01:35;6.50;3.00;2.00
78493;PMS7003;67781;48.920;2.346;2023-02-18T19:04:00;3.00;3.00;2.00
78493;PMS7003;67781;48.920;2.346;2023-02-18T19:06:26;3.00;3.00;3.00
78493;PMS7003;67781;48.920;2.346;2023-02-18T19:08:51;3.00;3.00;2.00
78493;PMS7003;67781;48.920;2.346;2023-02-18T19:11:16;2.50;2.00;2.00
78493;PMS7003;67781;48.920;2.346;2023-02-18T19:13:42;3.50;3.50;2.75
78493;PMS7003;67781;48.920;2.346;2023-02-18T19:16:16;3.00;3.00;2.00
78493;PMS7003;67781;48.920;2.346;2023-02-18T19:18:50;2.25;2.25;1.50
78493;PMS7003;67781;48.920;2.346;2023-02-18T19:21:16;3.00;2.25;2.00
78493;PMS7003;67781;48.920;2.346;2023-02-18T19:23:41;3.75;3.50;2.75
78493;PMS7003;67781;48.920;2.346;2023-02-18T19:26:06;6.25;3.75;2.75
78493;PMS7003;67781;48.920;2.346;2023-02-18T19:28:32;1.00;1.00;1.00
78493;PMS7003;67781;48.920;2.346;2023-02-18T19:30:58;3.00;2.75;2.25
78493;PMS7003;67781;48.920;2.346;2023-02-18T19:33:23;4.50;3.00;3.00
78493;PMS7003;67781;48.920;2.346;2023-02-18T19:35:48;5.00;2.50;2.00
78493;PMS7003;67781;48.920;2.346;2023-02-18T19:38:15;3.50;3.00;3.00
78493;PMS7003;67781;48.920;2.346;2023-02-18T19:40:42;2.75;2.75;2.25
78493;PMS7003;67781;48.920;2.346;2023-02-18T19:43:09;3.75;2.75;2.00
78493;PMS7003;67781;48.920;2.346;2023-02-18T19:45:38;3.50;2.00;1.75
78493;PMS7003;67781;48.920;2.346;2023-02-18T19:48:07;3.75;3.75;3.25
78493;PMS7003;67781;48.920;2.346;2023-02-18T19:50:34;2.00;2.00;2.00
78493;PMS7003;67781;48.920;2.346;2023-02-18T19:52:59;3.75;1.75;1.75
78493;PMS7003;67781;48.920;2.346;2023-02-18T19:55:25;4.00;2.50;2.00
78493;PMS7003;67781;48.920;2.346;2023-02-18T19:57:50;3.00;3.00;3.00
78493;PMS7003;67781;48.920;2.346;2023-02-18T20:00:16;4.75;3.00;2.75
78493;PMS7003;67781;48.920;2.346;2023-02-18T20:02:43;3.00;3.00;2.00
78493;PMS7003;67781;48.920;2.346;2023-02-18T20:05:09;2.50;2.50;2.00
78493;PMS7003;67781;48.920;2.346;2023-02-18T20:07:36;3.25;3.25;3.00
78493;PMS7003;67781;48.920;2.346;2023-02-18T20:10:05;3.00;3.00;2.00
78493;PMS7003;67781;48.920;2.346;2023-02-18T20:12:31;2.25;2.25;2.00
78493;PMS7003;67781;48.920;2.346;2023-02-18T20:14:56;4.00;3.00;3.00
78493;PMS7003;67781;48.920;2.346;2023-02-18T20:17:22;3.00;3.00;2.75
78493;PMS7003;67781;48.920;2.346;2023-02-18T20:19:47;3.50;3.50;3.00
78493;PMS7003;67781;48.920;2.346;2023-02-18T20:22:12;5.00;4.00;3.25
78493;PMS7003;67781;48.920;2.346;2023-02-18T20:24:38;4.75;3.75;3.00
78493;PMS7003;67781;48.920;2.346;2023-02-18T20:27:04;4.75;4.00;3.00
78493;PMS7003;67781;48.920;2.346;2023-02-18T20:29:30;4.75;3.75;2.75
78493;PMS7003;67781;48.920;2.346;2023-02-18T20:31:57;4.50;4.50;4.25
78493;PMS7003;67781;48.920;2.346;2023-02-18T20:34:23;5.00;4.00;3.25
78493;PMS7003;67781;48.920;2.346;2023-02-18T20:36:48;4.75;4.75;4.00
78493;PMS7003;67781;48.920;2.346;2023-02-18T20:39:15;6.50;6.25;4.75
78493;PMS7003;67781;48.920;2.346;2023-02-18T20:41:42;7.25;4.50;4.00
78493;PMS7003;67781;48.920;2.346;2023-02-18T20:44:07;5.00;3.00;3.00
78493;PMS7003;67781;48.920;2.346;2023-02-18T20:46:36;3.00;3.00;3.00
78493;PMS7003;67781;48.920;2.346;2023-02-18T20:49:06;4.50;4.50;4.00
78493;PMS7003;67781;48.920;2.346;2023-02-18T20:51:34;6.00;5.50;3.75
78493;PMS7003;67781;48.920;2.346;2023-02-18T20:54:03;6.25;6.25;4.00
78493;PMS7003;67781;48.920;2.346;2023-02-18T20:56:32;6.25;5.00;4.00
78493;PMS7003;67781;48.920;2.346;2023-02-18T20:58:58;5.75;5.75;5.00
78493;PMS7003;67781;48.920;2.346;2023-02-18T21:01:23;10.75;7.75;5.50
78493;PMS7003;67781;48.920;2.346;2023-02-18T21:03:49;9.25;8.25;5.00
78493;PMS7003;67781;48.920;2.346;2023-02-18T21:06:15;6.75;6.25;4.25
78493;PMS7003;67781;48.920;2.346;2023-02-18T21:08:44;6.00;6.00;5.00
78493;PMS7003;67781;48.920;2.346;2023-02-18T21:11:11;7.50;7.50;6.25
78493;PMS7003;67781;48.920;2.346;2023-02-18T21:13:39;8.00;6.50;5.50
78493;PMS7003;67781;48.920;2.346;2023-02-18T21:16:06;8.75;8.75;8.00
78493;PMS7003;67781;48.920;2.346;2023-02-18T21:18:32;8.00;8.00;6.25
78493;PMS7003;67781;48.920;2.346;2023-02-18T21:21:00;2.75;2.00;1.00
78493;PMS7003;67781;48.920;2.346;2023-02-18T21:23:26;9.00;8.50;6.50
78493;PMS7003;67781;48.920;2.346;2023-02-18T21:25:51;9.75;9.75;7.25
78493;PMS7003;67781;48.920;2.346;2023-02-18T21:28:17;10.75;10.00;9.25
78493;PMS7003;67781;48.920;2.346;2023-02-18T21:30:43;10.50;10.50;9.00
78493;PMS7003;67781;48.920;2.346;2023-02-18T21:33:09;13.75;12.75;11.75
78493;PMS7003;67781;48.920;2.346;2023-02-18T21:35:37;11.75;11.75;10.25
78493;PMS7003;67781;48.920;2.346;2023-02-18T21:38:04;11.75;11.75;10.25
78493;PMS7003;67781;48.920;2.346;2023-02-18T21:40:30;13.75;11.75;9.50
78493;PMS7003;67781;48.920;2.346;2023-02-18T21:42:56;10.00;10.00;9.00
78493;PMS7003;67781;48.920;2.346;2023-02-18T21:45:25;9.75;9.75;8.25
78493;PMS7003;67781;48.920;2.346;2023-02-18T21:47:54;10.25;10.25;8.25
78493;PMS7003;67781;48.920;2.346;2023-02-18T21:50:19;8.50;8.50;7.25
78493;PMS7003;67781;48.920;2.346;2023-02-18T21:52:45;11.25;9.75;8.75
78493;PMS7003;67781;48.920;2.346;2023-02-18T21:55:10;9.25;9.25;8.50
78493;PMS7003;67781;48.920;2.346;2023-02-18T21:57:36;12.50;11.25;9.00
78493;PMS7003;67781;48.920;2.346;2023-02-18T22:00:03;8.75;8.75;8.00
78493;PMS7003;67781;48.920;2.346;2023-02-18T22:02:30;12.25;10.00;8.00
78493;PMS7003;67781;48.920;2.346;2023-02-18T22:04:56;11.00;11.00;10.00
78493;PMS7003;67781;48.920;2.346;2023-02-18T22:07:23;10.75;9.00;7.00
78493;PMS7003;67781;48.920;2.346;2023-02-18T22:09:50;9.50;9.50;9.00
78493;PMS7003;67781;48.920;2.346;2023-02-18T22:12:17;9.25;9.25;8.50
78493;PMS7003;67781;48.920;2.346;2023-02-18T22:14:44;11.25;10.00;9.00
78493;PMS7003;67781;48.920;2.346;2023-02-18T22:17:10;12.75;10.75;9.25
78493;PMS7003;67781;48.920;2.346;2023-02-18T22:19:35;9.50;9.25;8.50
78493;PMS7003;67781;48.920;2.346;2023-02-18T22:22:01;10.50;9.00;7.75
78493;PMS7003;67781;48.920;2.346;2023-02-18T22:24:27;10.50;10.00;8.25
78493;PMS7003;67781;48.920;2.346;2023-02-18T22:26:53;9.75;9.50;8.50
78493;PMS7003;67781;48.920;2.346;2023-02-18T22:29:20;9.50;9.00;8.25
78493;PMS7003;67781;48.920;2.346;2023-02-18T22:31:46;8.25;8.25;7.75
78493;PMS7003;67781;48.920;2.346;2023-02-18T22:34:11;10.50;9.00;8.25
78493;PMS7003;67781;48.920;2.346;2023-02-18T22:36:37;9.25;9.25;8.25
78493;PMS7003;67781;48.920;2.346;2023-02-18T22:39:04;10.75;10.75;10.00
78493;PMS7003;67781;48.920;2.346;2023-02-18T22:41:30;12.25;10.25;9.25
78493;PMS7003;67781;48.920;2.346;2023-02-18T22:44:01;10.50;9.75;9.50
78493;PMS7003;67781;48.920;2.346;2023-02-18T22:46:30;9.50;9.50;9.25
78493;PMS7003;67781;48.920;2.346;2023-02-18T22:48:56;14.25;12.75;11.50
78493;PMS7003;67781;48.920;2.346;2023-02-18T22:51:27;13.00;11.00;9.75
78493;PMS7003;67781;48.920;2.346;2023-02-18T22:53:55;10.50;10.00;9.25
78493;PMS7003;67781;48.920;2.346;2023-02-18T22:56:22;10.50;10.25;9.75
78493;PMS7003;67781;48.920;2.346;2023-02-18T22:58:49;10.00;10.00;10.00
78493;PMS7003;67781;48.920;2.346;2023-02-18T23:01:25;11.75;11.75;9.00
78493;PMS7003;67781;48.920;2.346;2023-02-18T23:03:53;11.00;11.00;10.00
78493;PMS7003;67781;48.920;2.346;2023-02-18T23:06:19;13.25;11.25;9.75
78493;PMS7003;67781;48.920;2.346;2023-02-18T23:08:45;11.50;11.00;10.00
78493;PMS7003;67781;48.920;2.346;2023-02-18T23:11:12;12.25;12.25;12.00
78493;PMS7003;67781;48.920;2.346;2023-02-18T23:13:40;13.25;13.25;12.25
78493;PMS7003;67781;48.920;2.346;2023-02-18T23:16:07;11.75;11.50;9.75
78493;PMS7003;67781;48.920;2.346;2023-02-18T23:18:36;12.00;12.00;10.50
78493;PMS7003;67781;48.920;2.346;2023-02-18T23:21:07;10.50;10.50;9.75
78493;PMS7003;67781;48.920;2.346;2023-02-18T23:26:12;14.25;14.00;12.25
78493;PMS7003;67781;48.920;2.346;2023-02-18T23:28:38;11.50;11.50;10.50
78493;PMS7003;67781;48.920;2.346;2023-02-18T23:33:43;11.75;11.00;10.00
78493;PMS7003;67781;48.920;2.346;2023-02-18T23:36:14;14.00;14.00;12.50
78493;PMS7003;67781;48.920;2.346;2023-02-18T23:38:40;11.00;11.00;10.00
78493;PMS7003;67781;48.920;2.346;2023-02-18T23:41:10;10.25;10.25;9.75
78493;PMS7003;67781;48.920;2.346;2023-02-18T23:43:35;11.00;11.00;10.00
78493;PMS7003;67781;48.920;2.346;2023-02-18T23:46:01;11.25;9.50;8.75
78493;PMS7003;67781;48.920;2.346;2023-02-18T23:48:26;11.00;11.00;9.75
78493;PMS7003;67781;48.920;2.346;2023-02-18T23:51:01;12.25;12.25;11.50
78493;PMS7003;67781;48.920;2.346;2023-02-18T23:53:28;10.75;10.75;10.00
78493;PMS7003;67781;48.920;2.346;2023-02-18T23:56:05;9.00;9.00;8.25
78493;PMS7003;67781;48.920;2.346;2023-02-18T23:58:32;13.00;12.25;11.00
